createdAt,value
2023-01-13T00:01:36.255Z,11.00
2023-01-13T00:04:05.481Z,13.07
2023-01-13T00:06:34.464Z,10.57
2023-01-13T00:09:03.432Z,10.55
2023-01-13T00:11:32.410Z,10.55
2023-01-13T00:14:03.017Z,10.70
2023-01-13T00:16:32.042Z,9.75
2023-01-13T00:19:01.048Z,8.27
2023-01-13T00:21:30.098Z,11.48
2023-01-13T00:23:59.106Z,10.43
2023-01-13T00:26:33.807Z,9.48
2023-01-13T00:29:05.979Z,8.98
2023-01-13T00:31:35.324Z,10.55
2023-01-13T00:34:04.576Z,9.80
2023-01-13T00:36:33.791Z,9.25
2023-01-13T00:39:03.376Z,10.23
2023-01-13T00:41:52.565Z,8.13
2023-01-13T00:44:21.997Z,11.10
2023-01-13T00:46:51.382Z,9.30
2023-01-13T00:49:20.433Z,13.20
2023-01-13T00:51:49.384Z,10.35
2023-01-13T00:54:18.780Z,9.23
2023-01-13T00:56:47.784Z,10.30
2023-01-13T00:59:16.746Z,10.35
2023-01-13T01:01:47.309Z,11.45
2023-01-13T01:04:16.335Z,12.00
2023-01-13T01:06:45.362Z,13.38
2023-01-13T01:09:15.943Z,12.68
2023-01-13T01:11:45.341Z,11.55
2023-01-13T01:14:15.488Z,8.90
2023-01-13T01:16:44.579Z,7.80
2023-01-13T01:19:14.959Z,11.52
2023-01-13T01:21:43.999Z,13.18
2023-01-13T01:24:13.103Z,11.32
2023-01-13T01:26:42.089Z,9.85
2023-01-13T01:29:14.821Z,12.82
2023-01-13T01:31:44.724Z,10.50
2023-01-13T01:34:15.322Z,11.13
2023-01-13T01:36:44.467Z,11.43
2023-01-13T01:39:13.739Z,9.63
2023-01-13T01:42:03.909Z,9.65
2023-01-13T01:44:55.454Z,12.70
2023-01-13T01:47:26.317Z,13.45
2023-01-13T01:49:58.157Z,12.85
2023-01-13T01:52:32.178Z,12.00
2023-01-13T01:55:06.551Z,10.75
2023-01-13T01:57:42.190Z,11.55
2023-01-13T02:00:12.566Z,11.20
2023-01-13T02:02:45.353Z,13.65
2023-01-13T02:05:16.049Z,14.55
2023-01-13T02:07:47.631Z,7.57
2023-01-13T02:10:19.629Z,8.73
2023-01-13T02:12:50.349Z,11.13
2023-01-13T02:15:22.560Z,12.98
2023-01-13T02:18:11.105Z,9.90
2023-01-13T02:21:24.255Z,11.30
2023-01-13T02:24:55.117Z,11.35
2023-01-13T02:28:08.502Z,10.20
2023-01-13T02:31:01.579Z,10.55
2023-01-13T02:33:49.334Z,10.30
2023-01-13T02:36:29.346Z,11.38
2023-01-13T02:39:02.138Z,11.45
2023-01-13T02:41:57.029Z,10.10
2023-01-13T02:44:30.357Z,12.83
2023-01-13T02:47:05.457Z,13.80
2023-01-13T02:52:12.303Z,10.10
2023-01-13T02:54:45.940Z,11.68
2023-01-13T02:57:17.465Z,11.15
2023-01-13T02:59:46.481Z,9.93
2023-01-13T03:02:20.407Z,13.73
2023-01-13T03:04:53.124Z,12.65
2023-01-13T03:07:42.048Z,10.20
2023-01-13T03:10:17.061Z,15.10
2023-01-13T03:12:56.194Z,13.50
2023-01-13T03:15:37.262Z,11.93
2023-01-13T03:18:15.755Z,9.75
2023-01-13T03:20:51.056Z,11.60
2023-01-13T03:23:25.991Z,14.75
2023-01-13T03:26:03.558Z,11.15
2023-01-13T03:28:38.105Z,10.93
2023-01-13T03:31:12.640Z,16.52
2023-01-13T03:33:47.777Z,8.32
2023-01-13T03:38:53.411Z,16.85
2023-01-13T03:41:28.576Z,12.13
2023-01-13T03:46:52.015Z,9.85
2023-01-13T03:49:25.720Z,10.85
2023-01-13T03:51:59.989Z,11.68
2023-01-13T03:54:31.344Z,7.03
2023-01-13T03:57:05.610Z,9.57
2023-01-13T03:59:38.339Z,8.97
2023-01-13T04:02:11.067Z,9.90
2023-01-13T04:04:47.554Z,8.18
2023-01-13T04:07:21.931Z,8.02
2023-01-13T04:09:53.650Z,10.10
2023-01-13T04:12:49.032Z,6.68
2023-01-13T04:15:18.769Z,11.68
2023-01-13T04:17:47.949Z,6.80
2023-01-13T04:20:19.124Z,8.68
2023-01-13T04:22:48.232Z,9.88
2023-01-13T04:25:17.332Z,10.15
2023-01-13T04:27:46.449Z,9.73
2023-01-13T04:30:15.695Z,12.73
2023-01-13T04:32:44.672Z,9.55
2023-01-13T04:35:13.695Z,9.90
2023-01-13T04:37:44.057Z,6.82
2023-01-13T04:40:13.630Z,9.40
2023-01-13T04:42:42.588Z,13.60
2023-01-13T04:45:12.351Z,11.32
2023-01-13T04:47:42.134Z,6.65
2023-01-13T04:50:12.493Z,8.80
2023-01-13T04:52:41.961Z,9.75
2023-01-13T04:55:12.523Z,10.57
2023-01-13T04:57:41.507Z,9.23
2023-01-13T05:00:13.513Z,9.48
2023-01-13T05:02:42.615Z,9.38
2023-01-13T05:05:11.665Z,12.02
2023-01-13T05:07:40.735Z,8.75
2023-01-13T05:10:11.216Z,8.98
2023-01-13T05:12:59.258Z,9.35
2023-01-13T05:15:45.798Z,8.05
2023-01-13T05:18:14.979Z,10.43
2023-01-13T05:20:44.131Z,7.80
2023-01-13T05:23:31.028Z,8.77
2023-01-13T05:26:00.051Z,6.70
2023-01-13T05:28:35.067Z,7.80
2023-01-13T05:33:34.981Z,6.97
2023-01-13T05:36:05.974Z,11.68
2023-01-13T05:38:35.012Z,8.48
2023-01-13T05:41:21.391Z,7.30
2023-01-13T05:43:51.876Z,9.20
2023-01-13T05:46:20.943Z,7.30
2023-01-13T05:48:49.941Z,5.78
2023-01-13T05:51:19.867Z,9.13
2023-01-13T05:53:48.823Z,8.88
2023-01-13T05:56:18.240Z,7.22
2023-01-13T05:58:47.237Z,8.77
2023-01-13T06:01:19.173Z,7.55
2023-01-13T06:03:49.305Z,7.13
2023-01-13T06:06:18.991Z,9.00
2023-01-13T06:08:48.263Z,8.68
2023-01-13T06:11:17.230Z,8.05
2023-01-13T06:13:46.502Z,8.38
2023-01-13T06:16:15.599Z,6.03
2023-01-13T06:18:46.102Z,9.82
2023-01-13T06:21:15.126Z,10.30
2023-01-13T06:23:44.166Z,8.18
2023-01-13T06:26:17.355Z,7.07
2023-01-13T06:28:46.505Z,10.00
2023-01-13T06:31:15.811Z,9.15
2023-01-13T06:33:51.067Z,4.13
2023-01-13T06:36:23.758Z,9.35
2023-01-13T06:38:56.512Z,5.57
2023-01-13T06:41:41.411Z,8.57
2023-01-13T06:44:10.468Z,11.95
2023-01-13T06:46:39.637Z,7.68
2023-01-13T06:49:10.240Z,6.35
2023-01-13T06:51:39.516Z,8.73
2023-01-13T06:54:08.957Z,11.35
2023-01-13T06:56:38.110Z,8.25
2023-01-13T06:59:07.181Z,4.40
2023-01-13T07:01:37.445Z,4.25
2023-01-13T07:04:06.744Z,5.20
2023-01-13T07:06:37.123Z,5.03
2023-01-13T07:09:06.975Z,11.05
2023-01-13T07:11:36.141Z,5.55
2023-01-13T07:14:22.906Z,7.93
2023-01-13T07:16:54.019Z,4.75
2023-01-13T07:19:24.559Z,6.78
2023-01-13T07:21:55.165Z,7.22
2023-01-13T07:24:24.219Z,8.95
2023-01-13T07:26:53.599Z,8.05
2023-01-13T07:29:22.581Z,5.53
2023-01-13T07:31:55.638Z,5.60
2023-01-13T07:34:24.659Z,6.88
2023-01-13T07:36:55.284Z,4.45
2023-01-13T07:39:24.310Z,4.70
2023-01-13T07:42:10.913Z,5.35
2023-01-13T07:44:41.258Z,6.15
2023-01-13T07:47:11.429Z,4.80
2023-01-13T07:49:40.493Z,8.20
2023-01-13T07:52:11.024Z,6.82
2023-01-13T07:54:41.308Z,10.10
2023-01-13T07:57:10.541Z,7.45
2023-01-13T07:59:39.634Z,8.90
2023-01-13T08:02:12.888Z,4.93
2023-01-13T08:04:42.216Z,3.72
2023-01-13T08:07:12.668Z,6.82
2023-01-13T08:09:41.672Z,5.43
2023-01-13T08:12:29.021Z,7.22
2023-01-13T08:14:58.915Z,7.53
2023-01-13T08:17:28.118Z,5.22
2023-01-13T08:19:57.370Z,7.82
2023-01-13T08:22:27.849Z,6.00
2023-01-13T08:24:59.183Z,7.70
2023-01-13T08:27:28.455Z,5.45
2023-01-13T08:29:57.410Z,4.78
2023-01-13T08:32:26.605Z,8.48
2023-01-13T08:34:55.588Z,8.13
2023-01-13T08:37:24.983Z,7.78
2023-01-13T08:39:55.373Z,5.57
2023-01-13T08:42:24.709Z,6.85
2023-01-13T08:44:54.667Z,6.28
2023-01-13T08:47:24.153Z,5.32
2023-01-13T08:49:53.408Z,7.22
2023-01-13T08:52:27.544Z,4.72
2023-01-13T08:54:57.979Z,5.28
2023-01-13T08:57:27.126Z,5.65
2023-01-13T08:59:56.290Z,7.25
2023-01-13T09:02:26.705Z,5.25
2023-01-13T09:04:55.998Z,3.58
2023-01-13T09:07:25.262Z,5.70
2023-01-13T09:09:56.329Z,5.15
2023-01-13T09:12:43.992Z,6.60
2023-01-13T09:15:13.721Z,5.70
2023-01-13T09:17:42.914Z,5.75
2023-01-13T09:20:13.950Z,5.35
2023-01-13T09:22:43.181Z,7.60
2023-01-13T09:25:13.011Z,5.72
2023-01-13T09:27:43.648Z,3.83
2023-01-13T09:30:13.372Z,6.93
2023-01-13T09:32:42.420Z,5.97
2023-01-13T09:35:10.590Z,6.90
2023-01-13T09:37:42.150Z,7.82
2023-01-13T09:40:18.354Z,4.05
2023-01-13T09:43:13.292Z,4.95
2023-01-13T09:45:50.479Z,3.63
2023-01-13T09:48:24.804Z,3.30
2023-01-13T09:51:04.801Z,3.77
2023-01-13T09:53:38.434Z,5.82
2023-01-13T09:56:09.748Z,5.38
2023-01-13T09:58:40.224Z,5.57
2023-01-13T10:01:19.699Z,5.65
2023-01-13T10:03:49.760Z,7.10
2023-01-13T10:06:22.451Z,4.72
2023-01-13T10:08:52.614Z,5.63
2023-01-13T10:11:41.280Z,6.55
2023-01-13T10:14:19.997Z,4.80
2023-01-13T10:16:59.730Z,3.60
2023-01-13T10:19:34.306Z,4.35
2023-01-13T10:22:16.987Z,6.45
2023-01-13T10:25:18.390Z,4.22
2023-01-13T10:27:50.248Z,7.95
2023-01-13T10:30:24.093Z,7.97
2023-01-13T10:32:57.610Z,4.72
2023-01-13T10:35:52.720Z,5.75
2023-01-13T10:38:23.613Z,5.60
2023-01-13T10:40:54.570Z,5.38
2023-01-13T10:43:24.414Z,3.80
2023-01-13T10:46:00.310Z,5.85
2023-01-13T10:48:38.981Z,5.32
2023-01-13T10:51:22.164Z,4.07
2023-01-13T10:53:58.240Z,3.88
2023-01-13T10:56:30.151Z,5.65
2023-01-13T10:59:16.348Z,5.00
2023-01-13T11:02:02.503Z,3.33
2023-01-13T11:04:36.663Z,3.97
2023-01-13T11:07:08.013Z,4.95
2023-01-13T11:09:37.098Z,3.78
2023-01-13T11:12:06.324Z,4.22
2023-01-13T11:14:40.722Z,5.43
2023-01-13T11:17:32.525Z,8.70
2023-01-13T11:20:13.905Z,7.10
2023-01-13T11:22:47.626Z,4.38
2023-01-13T11:25:22.838Z,5.70
2023-01-13T11:30:32.755Z,6.07
2023-01-13T11:33:12.287Z,4.50
2023-01-13T11:35:46.526Z,3.83
2023-01-13T11:38:28.738Z,5.80
2023-01-13T11:41:04.676Z,5.60
2023-01-13T11:43:39.216Z,6.00
2023-01-13T11:46:11.775Z,3.97
2023-01-13T11:48:44.399Z,4.97
2023-01-13T11:51:23.836Z,6.00
2023-01-13T11:54:14.076Z,5.93
2023-01-13T11:57:03.823Z,4.95
2023-01-13T11:59:55.064Z,4.30
2023-01-13T12:02:38.927Z,5.93
2023-01-13T12:05:16.348Z,4.82
2023-01-13T12:07:55.024Z,5.97
2023-01-13T12:10:40.513Z,5.28
2023-01-13T12:13:24.223Z,4.28
2023-01-13T12:16:19.491Z,7.22
2023-01-13T12:19:13.259Z,4.70
2023-01-13T12:21:58.052Z,8.82
2023-01-13T12:24:31.090Z,5.70
2023-01-13T12:27:08.072Z,3.42
2023-01-13T12:29:39.216Z,6.35
2023-01-13T12:32:13.015Z,7.18
2023-01-13T12:34:59.648Z,4.10
2023-01-13T12:37:38.854Z,4.40
2023-01-13T12:40:22.985Z,5.93
2023-01-13T12:43:14.351Z,8.50
2023-01-13T12:45:43.322Z,6.43
2023-01-13T12:48:50.994Z,9.60
2023-01-13T12:51:25.254Z,8.15
2023-01-13T12:53:56.784Z,7.10
2023-01-13T12:56:45.938Z,4.88
2023-01-13T12:59:50.708Z,4.68
2023-01-13T13:02:37.331Z,10.15
2023-01-13T13:05:51.822Z,5.10
2023-01-13T13:08:37.066Z,9.48
2023-01-13T13:11:53.039Z,9.93
2023-01-13T13:14:55.185Z,7.47
2023-01-13T13:17:46.533Z,7.78
2023-01-13T13:20:59.232Z,6.53
2023-01-13T13:23:40.262Z,5.85
2023-01-13T13:26:24.053Z,4.13
2023-01-13T13:29:13.355Z,7.80
2023-01-13T13:32:09.587Z,11.80
2023-01-13T13:34:49.733Z,9.82
2023-01-13T13:37:56.883Z,8.38
2023-01-13T13:40:43.682Z,7.93
2023-01-13T13:43:34.003Z,9.07
2023-01-13T13:46:20.309Z,8.73
2023-01-13T13:48:54.050Z,6.95
2023-01-13T13:51:29.457Z,7.32
2023-01-13T13:54:02.792Z,7.22
2023-01-13T13:56:38.035Z,7.85
2023-01-13T14:01:42.087Z,5.80
2023-01-13T14:04:18.733Z,5.60
2023-01-13T14:06:52.387Z,7.75
2023-01-13T14:09:23.111Z,6.35
2023-01-13T14:12:00.765Z,8.18
2023-01-13T14:14:31.676Z,11.65
2023-01-13T14:17:00.663Z,8.43
2023-01-13T14:19:34.247Z,10.73
2023-01-13T14:22:05.725Z,7.78
2023-01-13T14:24:47.054Z,10.30
2023-01-13T14:27:18.236Z,7.40
2023-01-13T14:29:48.995Z,12.13
2023-01-13T14:32:21.256Z,9.10
2023-01-13T14:34:52.223Z,6.45
2023-01-13T14:37:28.012Z,9.27
2023-01-13T14:39:57.414Z,9.40
2023-01-13T14:42:27.819Z,8.30
2023-01-13T14:44:58.751Z,5.90
2023-01-13T14:47:29.910Z,10.57
2023-01-13T14:50:03.047Z,8.13
2023-01-13T14:52:36.126Z,9.40
2023-01-13T14:55:28.566Z,6.65
2023-01-13T14:58:18.973Z,11.30
2023-01-13T15:00:49.752Z,7.32
2023-01-13T15:03:20.292Z,7.35
2023-01-13T15:05:51.399Z,6.60
2023-01-13T15:08:31.036Z,9.35
2023-01-13T15:11:01.688Z,8.93
2023-01-13T15:13:53.066Z,8.88
2023-01-13T15:16:26.341Z,7.15
2023-01-13T15:18:56.540Z,7.43
2023-01-13T15:21:26.389Z,9.60
2023-01-13T15:23:55.534Z,11.02
2023-01-13T15:26:45.073Z,9.52
2023-01-13T15:29:16.036Z,11.95
2023-01-13T15:31:47.092Z,9.43
2023-01-13T15:34:16.681Z,11.45
2023-01-13T15:36:45.842Z,9.88
2023-01-13T15:39:14.905Z,10.80
2023-01-13T15:42:00.956Z,11.50
2023-01-13T15:44:47.308Z,10.85
2023-01-13T15:47:18.062Z,13.80
2023-01-13T15:49:48.245Z,10.60
2023-01-13T15:52:22.266Z,8.32
2023-01-13T15:54:52.301Z,9.20
2023-01-13T15:57:23.976Z,9.48
2023-01-13T15:59:56.577Z,9.35
2023-01-13T16:02:27.327Z,13.35
2023-01-13T16:04:57.337Z,12.30
2023-01-13T16:07:27.039Z,12.05
2023-01-13T16:09:56.754Z,8.70
2023-01-13T16:12:27.025Z,9.43
2023-01-13T16:14:56.248Z,7.80
2023-01-13T16:17:30.221Z,11.68
2023-01-13T16:19:59.449Z,9.25
2023-01-13T16:22:28.779Z,10.38
2023-01-13T16:24:57.996Z,9.27
2023-01-13T16:27:27.548Z,8.55
2023-01-13T16:29:59.631Z,11.70
2023-01-13T16:32:30.945Z,10.32
2023-01-13T16:35:04.172Z,6.55
2023-01-13T16:37:33.564Z,10.88
2023-01-13T16:40:03.117Z,12.38
2023-01-13T16:42:32.834Z,7.47
2023-01-13T16:45:08.464Z,7.97
2023-01-13T16:47:40.117Z,9.40
2023-01-13T16:50:23.274Z,7.28
2023-01-13T16:52:52.469Z,6.40
2023-01-13T16:55:21.699Z,7.90
2023-01-13T16:57:51.103Z,7.45
2023-01-13T17:00:21.807Z,7.70
2023-01-13T17:02:52.631Z,7.85
2023-01-13T17:05:22.307Z,7.63
2023-01-13T17:07:51.410Z,10.57
2023-01-13T17:10:22.983Z,10.10
2023-01-13T17:12:52.970Z,9.02
2023-01-13T17:15:22.252Z,9.77
2023-01-13T17:17:55.376Z,10.23
2023-01-13T17:20:24.648Z,10.32
2023-01-13T17:22:58.324Z,11.00
2023-01-13T17:25:28.216Z,10.63
2023-01-13T17:27:58.038Z,7.65
2023-01-13T17:30:27.324Z,10.85
2023-01-13T17:32:58.822Z,9.95
2023-01-13T17:35:29.037Z,10.55
2023-01-13T17:37:58.436Z,8.23
2023-01-13T17:40:27.914Z,8.85
2023-01-13T17:42:57.601Z,15.15
2023-01-13T17:45:26.982Z,10.48
2023-01-13T17:47:59.765Z,9.43
2023-01-13T17:50:30.071Z,12.18
2023-01-13T17:52:59.564Z,9.88
2023-01-13T17:55:29.032Z,10.57
2023-01-13T17:57:58.072Z,9.98
2023-01-13T18:00:27.143Z,11.35
2023-01-13T18:02:56.526Z,10.25
2023-01-13T18:05:28.095Z,13.35
2023-01-13T18:08:01.189Z,8.48
2023-01-13T18:10:30.716Z,8.85
2023-01-13T18:13:00.093Z,9.48
2023-01-13T18:15:29.707Z,8.82
2023-01-13T18:17:58.933Z,10.63
2023-01-13T18:20:47.086Z,11.18
2023-01-13T18:23:36.722Z,9.07
2023-01-13T18:26:33.765Z,8.45
2023-01-13T18:29:05.865Z,14.95
2023-01-13T18:31:35.365Z,14.88
2023-01-13T18:34:04.741Z,9.48
2023-01-13T18:36:36.271Z,10.25
2023-01-13T18:39:06.992Z,10.63
2023-01-13T18:41:53.737Z,13.95
2023-01-13T18:44:24.044Z,11.32
2023-01-13T18:46:53.535Z,11.40
2023-01-13T18:49:23.190Z,7.63
2023-01-13T18:51:55.757Z,11.00
2023-01-13T18:54:25.590Z,9.68
2023-01-13T18:56:55.262Z,8.68
2023-01-13T18:59:26.018Z,10.07
2023-01-13T19:01:55.517Z,9.30
2023-01-13T19:04:25.425Z,10.98
2023-01-13T19:07:00.917Z,10.48
2023-01-13T19:09:31.075Z,8.98
2023-01-13T19:12:01.392Z,14.40
2023-01-13T19:14:38.728Z,9.70
2023-01-13T19:17:12.810Z,8.95
2023-01-13T19:19:43.903Z,8.55
2023-01-13T19:22:17.234Z,9.73
2023-01-13T19:24:46.380Z,10.25
2023-01-13T19:27:17.176Z,10.75
2023-01-13T19:29:52.224Z,13.27
2023-01-13T19:32:23.229Z,12.20
2023-01-13T19:34:53.769Z,9.27
2023-01-13T19:37:30.457Z,8.00
2023-01-13T19:40:00.829Z,7.45
2023-01-13T19:42:47.869Z,16.33
2023-01-13T19:45:27.472Z,10.77
2023-01-13T19:47:57.482Z,16.42
2023-01-13T19:50:27.157Z,12.88
2023-01-13T19:52:58.795Z,12.00
2023-01-13T19:55:28.600Z,8.82
2023-01-13T19:57:58.598Z,10.70
2023-01-13T20:00:28.131Z,11.27
2023-01-13T20:03:03.297Z,9.35
2023-01-13T20:08:03.511Z,10.70
2023-01-13T20:10:33.050Z,12.88
2023-01-13T20:13:02.481Z,14.07
2023-01-13T20:15:32.190Z,9.68
2023-01-13T20:18:01.811Z,10.75
2023-01-13T20:20:31.212Z,10.85
2023-01-13T20:23:00.582Z,11.38
2023-01-13T20:25:31.535Z,13.60
2023-01-13T20:28:02.347Z,10.98
2023-01-13T20:30:31.836Z,7.00
2023-01-13T20:33:01.148Z,13.98
2023-01-13T20:35:30.538Z,14.10
2023-01-13T20:37:59.773Z,12.48
2023-01-13T20:40:30.363Z,11.35
2023-01-13T20:42:58.643Z,9.10
2023-01-13T20:45:27.940Z,10.25
2023-01-13T20:47:57.209Z,14.15
2023-01-13T20:50:26.251Z,7.95
2023-01-13T20:52:57.430Z,9.60
2023-01-13T20:55:26.710Z,8.52
2023-01-13T20:57:58.297Z,8.85
2023-01-13T21:00:29.299Z,9.70
2023-01-13T21:02:59.754Z,12.77
2023-01-13T21:05:29.757Z,9.98
2023-01-13T21:07:58.770Z,10.15
2023-01-13T21:10:27.891Z,10.00
2023-01-13T21:13:15.924Z,9.38
2023-01-13T21:15:48.507Z,12.32
2023-01-13T21:18:35.061Z,11.63
2023-01-13T21:21:12.557Z,15.23
2023-01-13T21:23:42.758Z,11.15
2023-01-13T21:26:12.710Z,8.80
2023-01-13T21:28:43.099Z,13.27
2023-01-13T21:31:12.435Z,11.18
2023-01-13T21:33:41.670Z,14.45
2023-01-13T21:36:14.302Z,9.13
2023-01-13T21:38:43.524Z,8.57
2023-01-13T21:41:14.541Z,12.25
2023-01-13T21:44:02.432Z,9.60
2023-01-13T21:46:48.611Z,9.00
2023-01-13T21:49:17.588Z,9.93
2023-01-13T21:51:46.635Z,10.32
2023-01-13T21:54:15.637Z,12.93
2023-01-13T21:56:44.714Z,10.55
2023-01-13T21:59:15.205Z,11.38
2023-01-13T22:01:57.123Z,10.80
2023-01-13T22:04:34.162Z,9.30
2023-01-13T22:07:04.910Z,12.23
2023-01-13T22:09:34.068Z,8.82
2023-01-13T22:12:02.964Z,9.77
2023-01-13T22:14:33.388Z,10.13
2023-01-13T22:17:04.017Z,12.32
2023-01-13T22:19:32.958Z,14.77
2023-01-13T22:22:01.853Z,12.38
2023-01-13T22:24:30.911Z,16.02
2023-01-13T22:26:59.916Z,8.38
2023-01-13T22:29:28.973Z,16.10
2023-01-13T22:32:00.004Z,16.00
2023-01-13T22:34:29.071Z,12.32
2023-01-13T22:36:58.034Z,14.35
2023-01-13T22:39:27.074Z,17.67
2023-01-13T22:41:56.235Z,14.00
2023-01-13T22:44:25.717Z,15.18
2023-01-13T22:46:54.782Z,15.65
2023-01-13T22:49:25.219Z,13.10
2023-01-13T22:51:54.525Z,11.30
2023-01-13T22:54:23.802Z,14.73
2023-01-13T22:56:52.839Z,12.90
2023-01-13T22:59:22.631Z,9.98
2023-01-13T23:01:51.663Z,13.68
2023-01-13T23:04:20.802Z,15.52
2023-01-13T23:06:51.209Z,18.45
2023-01-13T23:09:20.188Z,19.45
2023-01-13T23:11:49.294Z,16.35
2023-01-13T23:14:18.326Z,13.95
2023-01-13T23:16:48.168Z,15.10
2023-01-13T23:19:17.410Z,13.93
2023-01-13T23:21:46.594Z,16.02
2023-01-13T23:24:16.971Z,13.65
2023-01-13T23:26:46.174Z,18.58
2023-01-13T23:29:15.529Z,19.75
2023-01-13T23:31:44.498Z,19.23
2023-01-13T23:34:15.721Z,19.05
2023-01-13T23:36:44.751Z,17.33
2023-01-13T23:39:13.844Z,16.55
2023-01-13T23:41:44.206Z,18.95
2023-01-13T23:44:13.415Z,15.63
2023-01-13T23:46:42.459Z,15.80
2023-01-13T23:49:11.486Z,16.33
2023-01-13T23:51:40.443Z,17.08
2023-01-13T23:54:09.512Z,18.17
2023-01-13T23:56:40.357Z,22.25
2023-01-13T23:59:11.165Z,15.25
